createdAt,value
2022-10-22T00:00:14.680Z,51.53
2022-10-22T00:03:00.706Z,51.38
2022-10-22T00:05:47.917Z,51.53
2022-10-22T00:08:34.305Z,51.44
2022-10-22T00:11:20.577Z,51.50
2022-10-22T00:14:06.974Z,51.19
2022-10-22T00:16:53.025Z,51.75
2022-10-22T00:19:39.676Z,51.58
2022-10-22T00:22:25.544Z,51.18
2022-10-22T00:25:11.470Z,51.25
2022-10-22T00:27:57.455Z,51.49
2022-10-22T00:30:43.524Z,51.95
2022-10-22T00:33:30.182Z,51.60
2022-10-22T00:36:16.975Z,51.67
2022-10-22T00:39:03.318Z,51.81
2022-10-22T00:41:51.050Z,51.68
2022-10-22T00:45:10.892Z,51.63
2022-10-22T00:48:06.965Z,51.84
2022-10-22T00:50:58.171Z,51.95
2022-10-22T00:53:49.335Z,52.25
2022-10-22T00:56:34.958Z,52.01
2022-10-22T00:59:20.952Z,51.76
2022-10-22T01:02:07.073Z,51.86
2022-10-22T01:04:53.166Z,52.23
2022-10-22T01:07:43.576Z,51.85
2022-10-22T01:10:56.109Z,52.14
2022-10-22T01:14:12.631Z,51.75
2022-10-22T01:17:27.103Z,52.07
2022-10-22T01:20:16.184Z,52.46
2022-10-22T01:23:27.578Z,51.77
2022-10-22T01:26:35.195Z,52.11
2022-10-22T01:29:21.190Z,52.04
2022-10-22T01:32:14.357Z,52.29
2022-10-22T01:35:03.209Z,52.41
2022-10-22T01:38:01.632Z,51.92
2022-10-22T01:40:48.368Z,52.38
2022-10-22T01:43:34.250Z,52.20
2022-10-22T01:46:21.642Z,52.73
2022-10-22T01:49:26.153Z,52.62
2022-10-22T01:52:12.264Z,52.40
2022-10-22T01:55:08.122Z,52.51
2022-10-22T01:58:05.920Z,52.41
2022-10-22T02:01:20.835Z,51.97
2022-10-22T02:04:28.801Z,52.39
2022-10-22T02:07:20.127Z,52.11
2022-10-22T02:10:08.164Z,51.97
2022-10-22T02:12:56.116Z,51.96
2022-10-22T02:15:44.266Z,52.10
2022-10-22T02:18:35.275Z,52.33
2022-10-22T02:21:23.696Z,52.32
2022-10-22T02:24:09.596Z,52.26
2022-10-22T02:27:07.652Z,52.56
2022-10-22T02:30:01.991Z,52.69
2022-10-22T02:32:53.648Z,52.27
2022-10-22T02:35:41.011Z,52.55
2022-10-22T02:38:27.562Z,52.31
2022-10-22T02:41:13.809Z,52.59
2022-10-22T02:44:02.198Z,52.52
2022-10-22T02:46:48.715Z,52.51
2022-10-22T02:49:34.970Z,52.42
2022-10-22T02:52:20.868Z,52.53
2022-10-22T02:55:07.390Z,52.59
2022-10-22T02:57:53.150Z,52.54
2022-10-22T03:00:39.155Z,52.42
2022-10-22T03:03:24.957Z,52.61
2022-10-22T03:06:11.131Z,52.31
2022-10-22T03:08:57.142Z,52.72
2022-10-22T03:11:43.009Z,52.60
2022-10-22T03:14:28.821Z,52.57
2022-10-22T03:17:14.847Z,52.79
2022-10-22T03:20:01.034Z,52.85
2022-10-22T03:22:46.947Z,52.62
2022-10-22T03:25:34.638Z,53.02
2022-10-22T03:28:20.836Z,52.49
2022-10-22T03:31:07.382Z,52.56
2022-10-22T03:33:53.262Z,52.84
2022-10-22T03:36:40.286Z,52.83
2022-10-22T03:39:28.090Z,52.58
2022-10-22T03:42:14.221Z,52.53
2022-10-22T03:45:00.267Z,52.80
2022-10-22T03:47:46.281Z,52.81
2022-10-22T03:50:32.113Z,52.97
2022-10-22T03:53:17.930Z,52.86
2022-10-22T03:56:08.279Z,52.75
2022-10-22T03:58:57.584Z,52.62
2022-10-22T04:01:43.553Z,52.75
2022-10-22T04:04:29.560Z,53.06
2022-10-22T04:07:15.308Z,53.04
2022-10-22T04:10:01.387Z,53.10
2022-10-22T04:12:48.420Z,52.86
2022-10-22T04:15:34.419Z,52.92
2022-10-22T04:18:21.391Z,52.93
2022-10-22T04:21:09.238Z,52.96
2022-10-22T04:23:55.117Z,53.01
2022-10-22T04:26:41.171Z,53.07
2022-10-22T04:29:27.433Z,53.27
2022-10-22T04:32:13.208Z,52.86
2022-10-22T04:34:59.024Z,53.12
2022-10-22T04:37:45.113Z,53.36
2022-10-22T04:40:30.977Z,53.07
2022-10-22T04:43:16.922Z,53.30
2022-10-22T04:46:02.877Z,53.51
2022-10-22T04:48:49.183Z,53.36
2022-10-22T04:51:35.136Z,53.60
2022-10-22T04:54:21.260Z,53.28
2022-10-22T04:57:07.333Z,53.11
2022-10-22T04:59:53.293Z,53.33
2022-10-22T05:02:39.253Z,53.08
2022-10-22T05:05:25.269Z,53.48
2022-10-22T05:08:11.200Z,53.16
2022-10-22T05:10:57.165Z,53.12
2022-10-22T05:13:43.524Z,53.12
2022-10-22T05:16:30.078Z,53.74
2022-10-22T05:19:36.490Z,53.42
2022-10-22T05:22:22.421Z,53.48
2022-10-22T05:25:08.649Z,53.29
2022-10-22T05:27:57.210Z,53.51
2022-10-22T05:30:54.321Z,53.70
2022-10-22T05:33:41.228Z,53.65
2022-10-22T05:36:27.211Z,53.64
2022-10-22T05:39:13.565Z,53.50
2022-10-22T05:41:59.266Z,53.89
2022-10-22T05:44:45.201Z,53.68
2022-10-22T05:47:31.042Z,54.01
2022-10-22T05:50:16.855Z,53.81
2022-10-22T05:53:03.561Z,54.04
2022-10-22T05:55:49.733Z,53.78
2022-10-22T05:58:36.879Z,53.52
2022-10-22T06:01:31.586Z,53.71
2022-10-22T06:04:20.944Z,53.91
2022-10-22T06:07:11.043Z,53.93
2022-10-22T06:09:57.317Z,54.02
2022-10-22T06:12:43.217Z,53.58
2022-10-22T06:15:29.325Z,53.77
2022-10-22T06:18:15.616Z,53.61
2022-10-22T06:21:09.852Z,54.04
2022-10-22T06:23:57.029Z,53.99
2022-10-22T06:26:43.141Z,53.82
2022-10-22T06:29:29.341Z,53.90
2022-10-22T06:32:15.158Z,53.87
2022-10-22T06:35:01.124Z,53.77
2022-10-22T06:37:47.604Z,53.73
2022-10-22T06:40:33.925Z,53.92
2022-10-22T06:43:19.916Z,54.08
2022-10-22T06:46:08.813Z,54.05
2022-10-22T06:49:00.613Z,54.65
2022-10-22T06:51:50.539Z,54.22
2022-10-22T06:54:36.895Z,54.13
2022-10-22T06:57:23.135Z,53.80
2022-10-22T07:00:09.533Z,54.22
2022-10-22T07:02:57.791Z,54.20
2022-10-22T07:05:46.031Z,54.20
2022-10-22T07:08:32.245Z,54.40
2022-10-22T07:11:27.019Z,53.85
2022-10-22T07:14:13.995Z,53.84
2022-10-22T07:17:00.283Z,53.96
2022-10-22T07:19:49.633Z,54.38
2022-10-22T07:22:37.376Z,54.11
2022-10-22T07:25:23.780Z,54.19
2022-10-22T07:28:09.879Z,54.03
2022-10-22T07:30:55.818Z,53.89
2022-10-22T07:33:45.365Z,54.21
2022-10-22T07:36:31.655Z,54.06
2022-10-22T07:39:18.026Z,54.06
2022-10-22T07:42:04.036Z,54.29
2022-10-22T07:44:50.255Z,54.30
2022-10-22T07:47:36.502Z,54.36
2022-10-22T07:50:22.805Z,54.25
2022-10-22T07:53:09.061Z,54.19
2022-10-22T07:55:55.350Z,54.37
2022-10-22T07:58:42.140Z,54.33
2022-10-22T08:01:28.946Z,54.21
2022-10-22T08:04:18.247Z,54.26
2022-10-22T08:07:04.798Z,54.35
2022-10-22T08:10:21.940Z,54.85
2022-10-22T08:13:08.411Z,54.16
2022-10-22T08:15:57.331Z,54.39
2022-10-22T08:18:43.796Z,54.34
2022-10-22T08:21:30.040Z,54.47
2022-10-22T08:24:16.305Z,54.44
2022-10-22T08:27:02.319Z,54.24
2022-10-22T08:29:48.227Z,54.60
2022-10-22T08:32:34.136Z,54.76
2022-10-22T08:35:20.454Z,54.33
2022-10-22T08:38:06.370Z,54.25
2022-10-22T08:40:54.693Z,54.12
2022-10-22T08:44:09.064Z,54.56
2022-10-22T08:47:10.257Z,54.42
2022-10-22T08:49:57.194Z,54.51
2022-10-22T08:52:45.062Z,54.29
2022-10-22T08:55:35.162Z,54.56
2022-10-22T08:58:38.695Z,54.88
2022-10-22T09:01:46.478Z,54.76
2022-10-22T09:04:47.965Z,54.63
2022-10-22T09:07:34.384Z,54.72
2022-10-22T09:10:22.725Z,54.54
2022-10-22T09:13:11.704Z,54.71
2022-10-22T09:16:01.549Z,54.79
2022-10-22T09:19:12.246Z,54.65
2022-10-22T09:22:29.069Z,54.68
2022-10-22T09:25:21.446Z,54.85
2022-10-22T09:28:09.522Z,54.59
2022-10-22T09:30:55.377Z,54.28
2022-10-22T09:33:43.852Z,54.31
2022-10-22T09:36:30.120Z,54.21
2022-10-22T09:39:32.297Z,54.16
2022-10-22T09:42:20.758Z,53.89
2022-10-22T09:45:07.189Z,53.71
2022-10-22T09:48:10.740Z,53.55
2022-10-22T09:51:25.976Z,51.63
2022-10-22T09:54:19.349Z,53.07
2022-10-22T09:57:16.688Z,53.11
2022-10-22T10:00:02.523Z,52.73
2022-10-22T10:02:59.311Z,52.37
2022-10-22T10:05:49.373Z,52.39
2022-10-22T10:08:35.354Z,52.50
2022-10-22T10:11:29.432Z,52.28
2022-10-22T10:14:34.791Z,52.17
2022-10-22T10:17:45.460Z,52.02
2022-10-22T10:20:54.477Z,51.93
2022-10-22T10:23:55.643Z,51.62
2022-10-22T10:27:03.213Z,51.59
2022-10-22T10:29:52.794Z,51.31
2022-10-22T10:32:51.079Z,51.21
2022-10-22T10:35:43.555Z,51.21
2022-10-22T10:38:35.866Z,52.11
2022-10-22T10:41:41.609Z,51.53
2022-10-22T10:44:36.829Z,51.15
2022-10-22T10:47:41.475Z,51.19
2022-10-22T10:50:39.598Z,50.64
2022-10-22T10:53:58.805Z,50.79
2022-10-22T10:56:47.982Z,50.50
2022-10-22T10:59:49.920Z,50.22
2022-10-22T11:02:46.606Z,50.18
2022-10-22T11:05:48.930Z,50.15
2022-10-22T11:08:38.932Z,49.94
2022-10-22T11:11:44.308Z,49.54
2022-10-22T11:14:50.898Z,49.62
2022-10-22T11:17:41.492Z,49.41
2022-10-22T11:20:57.895Z,49.43
2022-10-22T11:24:13.022Z,49.27
2022-10-22T11:27:27.326Z,48.98
2022-10-22T11:30:22.047Z,48.78
2022-10-22T11:33:12.056Z,48.74
2022-10-22T11:35:58.131Z,49.09
2022-10-22T11:38:44.357Z,48.69
2022-10-22T11:41:32.696Z,48.28
2022-10-22T11:44:23.689Z,48.16
2022-10-22T11:47:18.174Z,48.14
2022-10-22T11:50:25.427Z,48.04
2022-10-22T11:53:15.361Z,47.69
2022-10-22T11:56:07.503Z,47.67
2022-10-22T11:58:55.113Z,47.41
2022-10-22T12:01:42.708Z,47.03
2022-10-22T12:04:42.299Z,46.97
2022-10-22T12:07:41.513Z,46.90
2022-10-22T12:10:30.594Z,46.69
2022-10-22T12:13:28.891Z,46.52
2022-10-22T12:16:15.508Z,46.32
2022-10-22T12:19:15.731Z,45.98
2022-10-22T12:22:08.012Z,45.98
2022-10-22T12:24:57.245Z,45.92
2022-10-22T12:27:43.543Z,46.13
2022-10-22T12:30:32.027Z,45.95
2022-10-22T12:33:23.230Z,45.04
2022-10-22T12:36:17.993Z,44.99
2022-10-22T12:39:12.089Z,44.90
2022-10-22T12:41:58.185Z,44.88
2022-10-22T12:44:44.861Z,44.63
2022-10-22T12:47:31.003Z,44.43
2022-10-22T12:50:22.782Z,43.85
2022-10-22T12:53:17.905Z,43.87
2022-10-22T12:56:12.546Z,43.63
2022-10-22T12:59:01.560Z,43.64
2022-10-22T13:01:48.972Z,43.82
2022-10-22T13:04:36.999Z,43.56
2022-10-22T13:07:43.502Z,43.60
2022-10-22T13:10:39.325Z,43.35
2022-10-22T13:13:42.651Z,43.29
2022-10-22T13:16:30.203Z,43.59
2022-10-22T13:19:42.676Z,43.34
2022-10-22T13:22:31.722Z,43.32
2022-10-22T13:25:19.569Z,43.15
2022-10-22T13:28:15.464Z,42.99
2022-10-22T13:31:10.347Z,42.95
2022-10-22T13:33:59.193Z,43.13
2022-10-22T13:36:46.965Z,43.18
2022-10-22T13:39:35.293Z,43.15
2022-10-22T13:42:21.385Z,42.96
2022-10-22T13:45:07.693Z,43.12
2022-10-22T13:47:54.491Z,43.08
2022-10-22T13:50:40.606Z,43.07
2022-10-22T13:53:28.036Z,42.88
2022-10-22T13:56:15.963Z,42.98
2022-10-22T13:59:01.935Z,43.07
2022-10-22T14:01:47.948Z,43.10
2022-10-22T14:04:35.963Z,42.87
2022-10-22T14:07:22.290Z,43.05
2022-10-22T14:10:18.341Z,42.74
2022-10-22T14:13:07.709Z,42.64
2022-10-22T14:15:53.982Z,43.07
2022-10-22T14:18:39.948Z,42.90
2022-10-22T14:21:26.216Z,42.90
2022-10-22T14:24:13.387Z,42.72
2022-10-22T14:26:59.736Z,42.66
2022-10-22T14:29:46.028Z,42.51
2022-10-22T14:32:32.317Z,42.52
2022-10-22T14:35:23.937Z,42.38
2022-10-22T14:38:10.357Z,42.38
2022-10-22T14:40:56.720Z,42.51
2022-10-22T14:43:42.838Z,42.53
2022-10-22T14:46:29.125Z,42.62
2022-10-22T14:49:15.275Z,42.56
2022-10-22T14:52:01.180Z,42.38
2022-10-22T14:54:48.607Z,42.25
2022-10-22T14:57:34.719Z,42.27
2022-10-22T15:00:21.294Z,42.28
2022-10-22T15:03:07.065Z,42.49
2022-10-22T15:05:54.083Z,42.47
2022-10-22T15:08:40.063Z,42.71
2022-10-22T15:11:26.854Z,42.63
2022-10-22T15:14:12.753Z,42.51
2022-10-22T15:16:59.681Z,42.46
2022-10-22T15:19:45.749Z,42.54
2022-10-22T15:22:35.198Z,42.53
2022-10-22T15:25:21.254Z,42.74
2022-10-22T15:28:09.896Z,42.68
2022-10-22T15:30:58.497Z,42.44
2022-10-22T15:33:44.666Z,42.72
2022-10-22T15:36:30.607Z,42.65
2022-10-22T15:39:16.569Z,43.02
2022-10-22T15:42:02.707Z,42.81
2022-10-22T15:44:48.568Z,42.93
2022-10-22T15:47:34.762Z,43.02
2022-10-22T15:50:20.945Z,43.01
2022-10-22T15:53:06.880Z,42.97
2022-10-22T15:55:55.324Z,42.82
2022-10-22T15:58:41.704Z,43.00
2022-10-22T16:01:27.753Z,43.04
2022-10-22T16:04:14.273Z,43.13
2022-10-22T16:07:00.201Z,43.08
2022-10-22T16:09:46.504Z,43.21
2022-10-22T16:12:32.736Z,42.96
2022-10-22T16:15:18.540Z,43.08
2022-10-22T16:18:04.673Z,43.12
2022-10-22T16:20:51.157Z,43.34
2022-10-22T16:23:37.236Z,43.28
2022-10-22T16:26:23.179Z,43.34
2022-10-22T16:29:11.474Z,43.25
2022-10-22T16:31:57.419Z,43.29
2022-10-22T16:34:43.332Z,43.54
2022-10-22T16:37:29.510Z,43.55
2022-10-22T16:40:15.708Z,43.46
2022-10-22T16:43:01.898Z,43.45
2022-10-22T16:45:51.162Z,43.60
2022-10-22T16:48:42.224Z,43.44
2022-10-22T16:51:28.738Z,43.75
2022-10-22T16:54:15.748Z,43.54
2022-10-22T16:57:01.864Z,43.81
2022-10-22T16:59:47.921Z,43.92
2022-10-22T17:02:35.327Z,43.60
2022-10-22T17:05:21.799Z,43.85
2022-10-22T17:08:07.905Z,43.92
2022-10-22T17:10:53.807Z,43.89
2022-10-22T17:13:43.725Z,44.05
2022-10-22T17:16:29.766Z,44.07
2022-10-22T17:19:16.408Z,44.24
2022-10-22T17:22:02.393Z,44.35
2022-10-22T17:25:24.805Z,44.53
2022-10-22T17:28:11.653Z,44.38
2022-10-22T17:31:18.070Z,44.42
2022-10-22T17:34:06.905Z,44.31
2022-10-22T17:36:53.449Z,44.48
2022-10-22T17:39:39.590Z,44.53
2022-10-22T17:42:25.543Z,44.37
2022-10-22T17:45:11.824Z,44.54
2022-10-22T17:47:57.838Z,44.62
2022-10-22T17:50:48.209Z,44.80
2022-10-22T17:53:38.752Z,44.74
2022-10-22T17:56:27.410Z,44.57
2022-10-22T17:59:16.205Z,44.74
2022-10-22T18:02:03.247Z,44.75
2022-10-22T18:04:52.626Z,45.00
2022-10-22T18:07:38.460Z,44.97
2022-10-22T18:10:24.691Z,45.16
2022-10-22T18:13:11.033Z,44.96
2022-10-22T18:15:57.436Z,45.22
2022-10-22T18:18:46.139Z,45.34
2022-10-22T18:21:31.979Z,45.43
2022-10-22T18:24:18.769Z,45.39
2022-10-22T18:27:05.182Z,45.51
2022-10-22T18:29:51.168Z,45.30
2022-10-22T18:32:37.289Z,45.61
2022-10-22T18:35:38.610Z,45.37
2022-10-22T18:38:25.347Z,45.33
2022-10-22T18:41:14.227Z,45.51
2022-10-22T18:44:02.593Z,45.54
2022-10-22T18:46:48.630Z,45.58
2022-10-22T18:49:34.732Z,45.63
2022-10-22T18:52:20.933Z,46.01
2022-10-22T18:55:07.297Z,45.63
2022-10-22T18:57:53.488Z,45.80
2022-10-22T19:00:39.540Z,45.67
2022-10-22T19:03:25.699Z,45.69
2022-10-22T19:06:17.955Z,46.00
2022-10-22T19:09:04.607Z,46.30
2022-10-22T19:11:50.636Z,46.22
2022-10-22T19:14:36.625Z,46.25
2022-10-22T19:17:23.164Z,46.46
2022-10-22T19:20:09.809Z,46.41
2022-10-22T19:22:56.900Z,46.46
2022-10-22T19:25:42.775Z,46.39
2022-10-22T19:28:28.822Z,46.51
2022-10-22T19:31:19.450Z,46.48
2022-10-22T19:34:05.492Z,46.52
2022-10-22T19:36:51.901Z,46.61
2022-10-22T19:39:38.570Z,46.68
2022-10-22T19:42:25.181Z,46.78
2022-10-22T19:45:11.481Z,46.79
2022-10-22T19:47:57.757Z,46.92
2022-10-22T19:50:43.766Z,47.06
2022-10-22T19:53:30.907Z,46.98
2022-10-22T19:56:19.883Z,46.96
2022-10-22T19:59:06.230Z,47.05
2022-10-22T20:01:52.272Z,47.37
2022-10-22T20:04:38.219Z,47.20
2022-10-22T20:07:24.303Z,47.11
2022-10-22T20:10:12.028Z,47.50
2022-10-22T20:12:58.516Z,47.33
2022-10-22T20:15:48.700Z,47.36
2022-10-22T20:18:34.784Z,47.19
2022-10-22T20:21:22.016Z,47.53
2022-10-22T20:24:08.352Z,47.41
2022-10-22T20:26:54.551Z,47.74
2022-10-22T20:29:40.767Z,47.66
2022-10-22T20:32:28.003Z,47.68
2022-10-22T20:35:14.963Z,47.37
2022-10-22T20:38:01.091Z,47.55
2022-10-22T20:40:47.215Z,47.76
2022-10-22T20:43:33.972Z,47.66
2022-10-22T20:46:24.125Z,47.74
2022-10-22T20:49:12.313Z,47.67
2022-10-22T20:51:59.164Z,47.72
2022-10-22T20:54:45.873Z,47.73
2022-10-22T20:57:32.312Z,47.90
2022-10-22T21:00:18.541Z,48.27
2022-10-22T21:03:04.700Z,48.10
2022-10-22T21:05:50.764Z,48.01
2022-10-22T21:08:36.744Z,47.92
2022-10-22T21:11:23.424Z,48.08
2022-10-22T21:14:11.154Z,48.31
2022-10-22T21:16:57.525Z,47.94
2022-10-22T21:19:43.547Z,48.48
2022-10-22T21:22:29.545Z,48.51
2022-10-22T21:25:15.911Z,48.52
2022-10-22T21:28:02.165Z,48.48
2022-10-22T21:30:48.074Z,48.46
2022-10-22T21:33:38.276Z,48.48
2022-10-22T21:36:25.107Z,48.77
2022-10-22T21:39:12.716Z,48.84
2022-10-22T21:41:58.682Z,48.79
2022-10-22T21:44:44.881Z,48.90
2022-10-22T21:47:30.968Z,48.83
2022-10-22T21:50:17.245Z,48.78
2022-10-22T21:53:03.146Z,48.99
2022-10-22T21:55:49.360Z,49.06
2022-10-22T21:58:36.298Z,48.74
2022-10-22T22:01:22.832Z,48.91
2022-10-22T22:04:09.016Z,48.91
2022-10-22T22:06:55.091Z,49.12
2022-10-22T22:09:40.877Z,49.49
2022-10-22T22:12:26.924Z,49.18
2022-10-22T22:15:13.447Z,49.24
2022-10-22T22:17:59.510Z,49.28
2022-10-22T22:20:45.500Z,49.33
2022-10-22T22:23:31.711Z,49.40
2022-10-22T22:26:25.316Z,49.51
2022-10-22T22:29:14.516Z,49.50
2022-10-22T22:32:00.419Z,49.49
2022-10-22T22:34:48.684Z,49.50
2022-10-22T22:37:34.560Z,49.58
2022-10-22T22:40:20.433Z,49.63
2022-10-22T22:43:06.450Z,49.90
2022-10-22T22:46:07.831Z,49.91
2022-10-22T22:48:53.896Z,49.96
2022-10-22T22:51:39.660Z,50.00
2022-10-22T22:54:25.605Z,50.04
2022-10-22T22:57:11.830Z,50.24
2022-10-22T22:59:57.641Z,50.40
2022-10-22T23:02:43.972Z,50.31
2022-10-22T23:05:30.613Z,50.30
2022-10-22T23:08:16.413Z,50.43
2022-10-22T23:11:10.609Z,50.32
2022-10-22T23:14:01.956Z,50.67
2022-10-22T23:16:50.149Z,50.61
2022-10-22T23:19:36.281Z,50.47
2022-10-22T23:22:22.062Z,50.51
2022-10-22T23:25:08.337Z,50.62
2022-10-22T23:27:54.976Z,50.44
2022-10-22T23:30:44.401Z,50.56
2022-10-22T23:33:31.054Z,50.78
2022-10-22T23:36:17.411Z,50.86
2022-10-22T23:39:06.252Z,50.71
2022-10-22T23:41:53.247Z,50.81
2022-10-22T23:44:39.118Z,50.63
2022-10-22T23:47:25.128Z,50.57
2022-10-22T23:50:13.052Z,50.46
2022-10-22T23:52:59.288Z,50.66
2022-10-22T23:55:45.381Z,50.80
2022-10-22T23:58:31.493Z,50.64
